createdAt,value
2022-12-09T00:00:27.892Z,95803.75
2022-12-09T00:02:54.501Z,95818.00
2022-12-09T00:05:21.080Z,95812.00
2022-12-09T00:07:48.142Z,95813.66
2022-12-09T00:10:14.754Z,95821.31
2022-12-09T00:12:41.569Z,95816.34
2022-12-09T00:15:08.829Z,95820.56
2022-12-09T00:17:35.592Z,95813.06
2022-12-09T00:20:02.190Z,95804.56
2022-12-09T00:22:29.352Z,95808.88
2022-12-09T00:24:55.945Z,95804.72
2022-12-09T00:27:22.624Z,95812.19
2022-12-09T00:29:49.111Z,95807.91
2022-12-09T00:32:15.602Z,95801.16
2022-12-09T00:34:42.375Z,95803.63
2022-12-09T00:37:09.081Z,95807.75
2022-12-09T00:39:35.480Z,95798.38
2022-12-09T00:42:02.189Z,95797.50
2022-12-09T00:44:28.529Z,95788.03
2022-12-09T00:46:54.965Z,95796.59
2022-12-09T00:49:21.437Z,95797.47
2022-12-09T00:51:47.878Z,95793.28
2022-12-09T00:54:14.454Z,95799.16
2022-12-09T00:56:40.939Z,95799.94
2022-12-09T00:59:07.528Z,95796.41
2022-12-09T01:01:33.949Z,95797.47
2022-12-09T01:04:02.512Z,95791.75
2022-12-09T01:06:29.244Z,95791.75
2022-12-09T01:08:55.900Z,95795.19
2022-12-09T01:11:25.458Z,95793.56
2022-12-09T01:13:53.030Z,95799.47
2022-12-09T01:16:22.959Z,95792.94
2022-12-09T01:18:49.927Z,95788.84
2022-12-09T01:21:17.237Z,95794.56
2022-12-09T01:23:43.977Z,95791.75
2022-12-09T01:26:10.924Z,95791.56
2022-12-09T01:28:39.184Z,95786.31
2022-12-09T01:31:14.718Z,95790.63
2022-12-09T01:33:42.551Z,95786.34
2022-12-09T01:36:16.281Z,95783.78
2022-12-09T01:38:43.121Z,95779.69
2022-12-09T01:41:10.079Z,95783.03
2022-12-09T01:43:38.275Z,95782.22
2022-12-09T01:46:05.064Z,95777.16
2022-12-09T01:48:46.036Z,95771.38
2022-12-09T01:51:15.649Z,95768.94
2022-12-09T01:53:45.209Z,95764.84
2022-12-09T01:56:17.039Z,95753.16
2022-12-09T01:58:44.764Z,95760.75
2022-12-09T02:01:12.087Z,95759.22
2022-12-09T02:03:38.863Z,95754.97
2022-12-09T02:06:05.692Z,95744.06
2022-12-09T02:08:32.138Z,95746.69
2022-12-09T02:11:01.424Z,95745.97
2022-12-09T02:13:44.517Z,95735.78
2022-12-09T02:16:17.212Z,95723.19
2022-12-09T02:18:53.410Z,95713.88
2022-12-09T02:21:35.368Z,95722.34
2022-12-09T02:24:08.995Z,95716.41
2022-12-09T02:27:05.009Z,95712.16
2022-12-09T02:29:44.628Z,95707.88
2022-12-09T02:32:49.931Z,95707.66
2022-12-09T02:35:26.477Z,95709.97
2022-12-09T02:38:09.402Z,95708.88
2022-12-09T02:40:39.705Z,95719.69
2022-12-09T02:43:09.044Z,95717.94
2022-12-09T02:45:37.694Z,95722.19
2022-12-09T02:48:05.328Z,95724.81
2022-12-09T02:50:36.746Z,95720.69
2022-12-09T02:53:05.879Z,95724.94
2022-12-09T02:55:34.403Z,95708.84
2022-12-09T02:58:01.596Z,95720.78
2022-12-09T03:00:28.997Z,95717.56
2022-12-09T03:03:01.476Z,95714.22
2022-12-09T03:05:42.226Z,95712.50
2022-12-09T03:08:09.189Z,95704.94
2022-12-09T03:11:08.373Z,95710.91
2022-12-09T03:14:12.543Z,95685.69
2022-12-09T03:16:47.093Z,95689.13
2022-12-09T03:19:36.859Z,95695.78
2022-12-09T03:22:07.674Z,95689.00
2022-12-09T03:24:42.818Z,95672.81
2022-12-09T03:27:14.583Z,95681.31
2022-12-09T03:29:45.108Z,95676.22
2022-12-09T03:32:15.489Z,95670.41
2022-12-09T03:34:45.442Z,95680.50
2022-12-09T03:37:16.769Z,95684.66
2022-12-09T03:39:44.026Z,95682.09
2022-12-09T03:42:19.238Z,95693.16
2022-12-09T03:44:52.402Z,95684.03
2022-12-09T03:47:19.005Z,95679.84
2022-12-09T03:49:45.531Z,95680.59
2022-12-09T03:52:16.211Z,95678.75
2022-12-09T03:54:44.870Z,95684.47
2022-12-09T03:57:18.438Z,95687.22
2022-12-09T03:59:52.690Z,95672.03
2022-12-09T04:02:19.896Z,95666.81
2022-12-09T04:04:46.731Z,95665.06
2022-12-09T04:07:13.416Z,95665.00
2022-12-09T04:09:39.925Z,95663.25
2022-12-09T04:12:06.900Z,95664.94
2022-12-09T04:14:33.565Z,95664.81
2022-12-09T04:17:00.267Z,95647.06
2022-12-09T04:19:27.017Z,95671.53
2022-12-09T04:21:53.785Z,95670.09
2022-12-09T04:24:20.274Z,95662.63
2022-12-09T04:26:46.840Z,95650.75
2022-12-09T04:29:13.856Z,95652.34
2022-12-09T04:31:40.555Z,95642.13
2022-12-09T04:34:09.798Z,95651.53
2022-12-09T04:36:37.247Z,95639.72
2022-12-09T04:39:04.210Z,95647.28
2022-12-09T04:41:31.888Z,95664.09
2022-12-09T04:43:58.574Z,95665.06
2022-12-09T04:46:25.308Z,95660.88
2022-12-09T04:48:52.889Z,95656.63
2022-12-09T04:51:19.533Z,95654.06
2022-12-09T04:53:46.327Z,95647.28
2022-12-09T04:56:21.478Z,95641.44
2022-12-09T04:58:49.870Z,95622.97
2022-12-09T05:01:26.389Z,95622.97
2022-12-09T05:03:55.007Z,95621.25
2022-12-09T05:06:22.945Z,95622.16
2022-12-09T05:08:49.894Z,95620.53
2022-12-09T05:11:18.111Z,95621.44
2022-12-09T05:13:45.429Z,95627.25
2022-12-09T05:16:17.013Z,95631.44
2022-12-09T05:18:44.810Z,95627.19
2022-12-09T05:21:15.094Z,95624.63
2022-12-09T05:23:42.393Z,95609.31
2022-12-09T05:26:13.370Z,95615.31
2022-12-09T05:28:40.431Z,95614.38
2022-12-09T05:31:11.737Z,95603.50
2022-12-09T05:33:39.066Z,95598.56
2022-12-09T05:36:10.516Z,95591.88
2022-12-09T05:38:37.058Z,95596.09
2022-12-09T05:41:04.008Z,95587.66
2022-12-09T05:43:31.695Z,95587.69
2022-12-09T05:45:58.924Z,95586.78
2022-12-09T05:48:25.759Z,95584.75
2022-12-09T05:51:00.636Z,95570.34
2022-12-09T05:53:27.968Z,95580.63
2022-12-09T05:55:55.081Z,95573.06
2022-12-09T05:58:22.286Z,95579.63
2022-12-09T06:00:49.074Z,95577.03
2022-12-09T06:03:16.148Z,95567.88
2022-12-09T06:05:43.330Z,95565.13
2022-12-09T06:08:09.948Z,95562.50
2022-12-09T06:10:39.691Z,95565.84
2022-12-09T06:13:07.276Z,95561.63
2022-12-09T06:15:35.142Z,95559.94
2022-12-09T06:18:02.272Z,95563.22
2022-12-09T06:20:29.214Z,95569.28
2022-12-09T06:22:55.820Z,95562.59
2022-12-09T06:25:22.661Z,95560.75
2022-12-09T06:27:49.782Z,95564.13
2022-12-09T06:30:16.775Z,95562.38
2022-12-09T06:32:43.735Z,95560.72
2022-12-09T06:35:10.943Z,95559.03
2022-12-09T06:37:37.934Z,95556.56
2022-12-09T06:40:05.420Z,95559.94
2022-12-09T06:42:31.967Z,95547.19
2022-12-09T06:44:58.763Z,95558.22
2022-12-09T06:47:25.610Z,95552.38
2022-12-09T06:49:52.502Z,95545.69
2022-12-09T06:52:19.069Z,95539.66
2022-12-09T06:54:45.572Z,95555.97
2022-12-09T06:57:12.077Z,95554.28
2022-12-09T06:59:38.781Z,95552.63
2022-12-09T07:02:05.571Z,95550.09
2022-12-09T07:04:32.328Z,95549.22
2022-12-09T07:06:59.112Z,95551.72
2022-12-09T07:09:26.061Z,95552.53
2022-12-09T07:11:52.898Z,95542.53
2022-12-09T07:14:20.099Z,95556.13
2022-12-09T07:16:47.213Z,95564.59
2022-12-09T07:19:19.888Z,95550.94
2022-12-09T07:21:47.015Z,95560.16
2022-12-09T07:24:13.989Z,95555.31
2022-12-09T07:26:40.737Z,95548.72
2022-12-09T07:29:08.022Z,95556.25
2022-12-09T07:31:35.764Z,95535.09
2022-12-09T07:34:04.318Z,95547.56
2022-12-09T07:36:33.134Z,95556.84
2022-12-09T07:39:02.364Z,95553.50
2022-12-09T07:41:29.631Z,95556.00
2022-12-09T07:43:56.572Z,95545.94
2022-12-09T07:46:27.502Z,95548.56
2022-12-09T07:48:55.997Z,95551.16
2022-12-09T07:51:24.534Z,95554.59
2022-12-09T07:53:53.802Z,95551.28
2022-12-09T07:56:21.682Z,95544.66
2022-12-09T07:58:51.268Z,95533.16
2022-12-09T08:01:24.656Z,95512.84
2022-12-09T08:03:52.469Z,95527.34
2022-12-09T08:06:23.074Z,95521.22
2022-12-09T08:08:51.240Z,95530.56
2022-12-09T08:11:24.429Z,95531.44
2022-12-09T08:13:52.367Z,95519.78
2022-12-09T08:16:21.524Z,95521.66
2022-12-09T08:18:49.582Z,95515.16
2022-12-09T08:21:20.471Z,95513.66
2022-12-09T08:23:47.361Z,95503.47
2022-12-09T08:26:16.330Z,95504.31
2022-12-09T08:28:44.345Z,95506.03
2022-12-09T08:31:14.401Z,95513.06
2022-12-09T08:33:41.904Z,95503.88
2022-12-09T08:36:17.339Z,95499.59
2022-12-09T08:38:44.216Z,95494.72
2022-12-09T08:41:22.232Z,95473.66
2022-12-09T08:43:49.286Z,95471.41
2022-12-09T08:46:16.301Z,95480.75
2022-12-09T08:48:43.513Z,95475.78
2022-12-09T08:51:11.504Z,95477.53
2022-12-09T08:53:39.048Z,95480.97
2022-12-09T08:56:11.143Z,95467.47
2022-12-09T08:58:38.140Z,95478.53
2022-12-09T09:01:05.713Z,95481.97
2022-12-09T09:03:33.286Z,95477.00
2022-12-09T09:06:09.517Z,95470.97
2022-12-09T09:08:39.145Z,95473.44
2022-12-09T09:11:11.509Z,95470.25
2022-12-09T09:13:40.150Z,95476.22
2022-12-09T09:16:11.418Z,95469.56
2022-12-09T09:18:39.283Z,95475.53
2022-12-09T09:21:07.667Z,95475.50
2022-12-09T09:23:34.723Z,95467.81
2022-12-09T09:26:01.816Z,95462.84
2022-12-09T09:28:31.664Z,95456.25
2022-12-09T09:31:04.388Z,95453.88
2022-12-09T09:33:31.634Z,95448.84
2022-12-09T09:36:05.534Z,95451.44
2022-12-09T09:38:34.790Z,95454.81
2022-12-09T09:41:02.085Z,95459.16
2022-12-09T09:43:34.277Z,95447.41
2022-12-09T09:46:02.032Z,95448.38
2022-12-09T09:48:33.618Z,95435.72
2022-12-09T09:51:18.442Z,95430.72
2022-12-09T09:53:49.334Z,95434.03
2022-12-09T09:56:18.474Z,95432.34
2022-12-09T09:59:14.405Z,95428.97
2022-12-09T10:01:43.324Z,95416.41
2022-12-09T10:04:41.451Z,95410.56
2022-12-09T10:07:21.410Z,95413.97
2022-12-09T10:09:56.643Z,95414.81
2022-12-09T10:12:47.232Z,95409.72
2022-12-09T10:15:18.833Z,95419.09
2022-12-09T10:18:23.542Z,95420.69
2022-12-09T10:20:50.749Z,95398.75
2022-12-09T10:23:18.172Z,95401.28
2022-12-09T10:25:59.649Z,95394.41
2022-12-09T10:28:34.581Z,95407.94
2022-12-09T10:31:03.256Z,95413.88
2022-12-09T10:33:37.065Z,95413.88
2022-12-09T10:36:04.270Z,95410.50
2022-12-09T10:38:31.674Z,95411.31
2022-12-09T10:41:36.877Z,95408.75
2022-12-09T10:44:21.761Z,95394.44
2022-12-09T10:46:57.506Z,95399.50
2022-12-09T10:49:25.385Z,95408.66
2022-12-09T10:51:54.075Z,95401.81
2022-12-09T10:54:35.172Z,95395.97
2022-12-09T10:57:06.425Z,95386.75
2022-12-09T10:59:40.880Z,95390.91
2022-12-09T11:02:11.062Z,95385.16
2022-12-09T11:04:41.783Z,95395.28
2022-12-09T11:07:20.918Z,95385.00
2022-12-09T11:10:07.053Z,95388.31
2022-12-09T11:12:41.382Z,95383.16
2022-12-09T11:15:33.345Z,95379.91
2022-12-09T11:18:16.084Z,95371.38
2022-12-09T11:20:53.505Z,95358.78
2022-12-09T11:23:21.278Z,95352.09
2022-12-09T11:25:54.857Z,95350.56
2022-12-09T11:28:41.237Z,95340.47
2022-12-09T11:31:35.774Z,95338.00
2022-12-09T11:34:06.720Z,95333.75
2022-12-09T11:36:37.068Z,95327.84
2022-12-09T11:39:16.080Z,95321.09
2022-12-09T11:42:12.845Z,95321.94
2022-12-09T11:44:48.090Z,95324.56
2022-12-09T11:47:36.498Z,95312.72
2022-12-09T11:50:24.309Z,95312.97
2022-12-09T11:53:12.771Z,95308.09
2022-12-09T11:55:44.590Z,95310.69
2022-12-09T11:58:15.647Z,95307.31
2022-12-09T12:00:50.865Z,95312.38
2022-12-09T12:03:31.638Z,95319.94
2022-12-09T12:06:01.593Z,95319.06
2022-12-09T12:08:46.949Z,95316.44
2022-12-09T12:11:19.450Z,95309.69
2022-12-09T12:13:52.740Z,95302.06
2022-12-09T12:16:39.086Z,95296.97
2022-12-09T12:19:17.619Z,95307.84
2022-12-09T12:22:16.243Z,95306.09
2022-12-09T12:24:55.926Z,95306.97
2022-12-09T12:27:43.892Z,95300.22
2022-12-09T12:30:18.174Z,95296.88
2022-12-09T12:33:17.856Z,95290.94
2022-12-09T12:35:55.467Z,95288.41
2022-12-09T12:38:21.930Z,95291.81
2022-12-09T12:41:03.677Z,95290.94
2022-12-09T12:43:48.660Z,95278.31
2022-12-09T12:47:04.318Z,95277.56
2022-12-09T12:50:11.343Z,95270.88
2022-12-09T12:52:56.334Z,95265.84
2022-12-09T12:55:54.794Z,95251.53
2022-12-09T12:58:46.006Z,95261.69
2022-12-09T13:01:29.846Z,95259.91
2022-12-09T13:04:24.729Z,95271.66
2022-12-09T13:07:12.595Z,95274.19
2022-12-09T13:09:53.201Z,95282.47
2022-12-09T13:12:46.460Z,95287.44
2022-12-09T13:15:16.475Z,95282.47
2022-12-09T13:17:45.659Z,95268.94
2022-12-09T13:20:25.930Z,95266.44
2022-12-09T13:23:23.382Z,95259.72
2022-12-09T13:26:02.796Z,95264.84
2022-12-09T13:28:51.013Z,95263.19
2022-12-09T13:31:20.637Z,95269.09
2022-12-09T13:33:56.674Z,95264.84
2022-12-09T13:36:45.506Z,95262.34
2022-12-09T13:39:40.058Z,95258.97
2022-12-09T13:42:47.094Z,95256.44
2022-12-09T13:45:34.111Z,95253.88
2022-12-09T13:48:16.453Z,95256.38
2022-12-09T13:50:57.242Z,95261.47
2022-12-09T13:53:45.705Z,95258.06
2022-12-09T13:56:16.205Z,95259.72
2022-12-09T13:59:21.162Z,95263.00
2022-12-09T14:02:00.897Z,95262.97
2022-12-09T14:04:44.837Z,95263.00
2022-12-09T14:07:14.385Z,95266.38
2022-12-09T14:09:43.623Z,95262.94
2022-12-09T14:12:26.610Z,95267.94
2022-12-09T14:14:53.948Z,95267.91
2022-12-09T14:17:23.378Z,95255.25
2022-12-09T14:20:00.630Z,95259.44
2022-12-09T14:22:34.611Z,95265.38
2022-12-09T14:25:39.913Z,95274.59
2022-12-09T14:28:12.040Z,95272.88
2022-12-09T14:30:47.824Z,95277.00
2022-12-09T14:33:24.136Z,95257.50
2022-12-09T14:35:56.757Z,95265.94
2022-12-09T14:38:32.201Z,95264.28
2022-12-09T14:41:23.792Z,95253.22
2022-12-09T14:44:08.970Z,95260.78
2022-12-09T14:46:41.191Z,95262.44
2022-12-09T14:49:23.519Z,95281.00
2022-12-09T14:52:13.961Z,95284.41
2022-12-09T14:54:46.878Z,95297.03
2022-12-09T14:57:35.806Z,95288.50
2022-12-09T15:00:02.573Z,95288.53
2022-12-09T15:02:31.330Z,95293.56
2022-12-09T15:05:00.909Z,95290.19
2022-12-09T15:07:31.430Z,95290.16
2022-12-09T15:10:01.040Z,95290.16
2022-12-09T15:12:42.446Z,95279.16
2022-12-09T15:15:24.064Z,95285.09
2022-12-09T15:18:04.844Z,95273.13
2022-12-09T15:20:34.531Z,95289.97
2022-12-09T15:23:18.654Z,95290.78
2022-12-09T15:25:56.510Z,95297.53
2022-12-09T15:28:26.865Z,95298.38
2022-12-09T15:31:00.253Z,95275.56
2022-12-09T15:33:30.783Z,95290.75
2022-12-09T15:36:01.229Z,95292.41
2022-12-09T15:38:37.334Z,95294.91
2022-12-09T15:41:27.235Z,95288.94
2022-12-09T15:43:57.456Z,95311.72
2022-12-09T15:46:25.311Z,95304.13
2022-12-09T15:48:58.273Z,95303.28
2022-12-09T15:51:26.707Z,95308.31
2022-12-09T15:54:09.421Z,95305.00
2022-12-09T15:56:40.691Z,95313.41
2022-12-09T15:59:13.897Z,95303.31
2022-12-09T16:01:52.123Z,95307.53
2022-12-09T16:04:22.462Z,95304.16
2022-12-09T16:06:50.227Z,95292.28
2022-12-09T16:09:21.692Z,95301.53
2022-12-09T16:11:53.889Z,95303.16
2022-12-09T16:14:22.645Z,95297.28
2022-12-09T16:17:01.425Z,95300.63
2022-12-09T16:19:30.516Z,95304.00
2022-12-09T16:22:06.588Z,95304.91
2022-12-09T16:25:13.220Z,95308.22
2022-12-09T16:27:33.235Z,95314.19
2022-12-09T16:30:24.092Z,95315.03
2022-12-09T16:32:55.777Z,95322.59
2022-12-09T16:35:34.264Z,95320.09
2022-12-09T16:38:09.532Z,95311.56
2022-12-09T16:40:45.032Z,95314.97
2022-12-09T16:43:17.732Z,95315.81
2022-12-09T16:45:53.002Z,95308.13
2022-12-09T16:48:21.612Z,95307.41
2022-12-09T16:50:51.392Z,95314.13
2022-12-09T16:53:22.186Z,95308.22
2022-12-09T16:55:52.618Z,95316.63
2022-12-09T16:58:20.381Z,95318.31
2022-12-09T17:00:47.567Z,95314.09
2022-12-09T17:03:31.541Z,95313.97
2022-12-09T17:05:57.980Z,95322.44
2022-12-09T17:08:24.492Z,95324.13
2022-12-09T17:10:51.002Z,95321.66
2022-12-09T17:13:17.432Z,95314.09
2022-12-09T17:15:43.909Z,95317.41
2022-12-09T17:18:11.025Z,95325.81
2022-12-09T17:20:38.140Z,95325.69
2022-12-09T17:23:04.690Z,95335.72
2022-12-09T17:25:33.436Z,95338.31
2022-12-09T17:28:05.684Z,95336.56
2022-12-09T17:30:36.283Z,95337.38
2022-12-09T17:33:02.694Z,95332.22
2022-12-09T17:35:29.154Z,95334.72
2022-12-09T17:37:55.578Z,95333.75
2022-12-09T17:40:22.078Z,95341.38
2022-12-09T17:42:48.465Z,95349.81
2022-12-09T17:45:15.131Z,95355.72
2022-12-09T17:47:41.621Z,95339.66
2022-12-09T17:50:08.695Z,95357.50
2022-12-09T17:52:35.579Z,95350.75
2022-12-09T17:55:01.985Z,95356.75
2022-12-09T17:57:28.411Z,95349.06
2022-12-09T17:59:54.895Z,95361.69
2022-12-09T18:02:21.384Z,95358.28
2022-12-09T18:04:47.845Z,95359.97
2022-12-09T18:07:14.283Z,95360.81
2022-12-09T18:09:40.700Z,95361.72
2022-12-09T18:12:07.499Z,95365.09
2022-12-09T18:14:33.913Z,95362.53
2022-12-09T18:17:01.215Z,95370.97
2022-12-09T18:19:28.378Z,95376.03
2022-12-09T18:21:55.679Z,95373.47
2022-12-09T18:24:22.584Z,95381.13
2022-12-09T18:26:49.010Z,95381.06
2022-12-09T18:29:15.534Z,95371.81
2022-12-09T18:31:45.500Z,95374.31
2022-12-09T18:34:12.058Z,95375.97
2022-12-09T18:36:38.517Z,95371.81
2022-12-09T18:39:05.264Z,95374.41
2022-12-09T18:41:32.323Z,95383.69
2022-12-09T18:44:02.278Z,95380.25
2022-12-09T18:46:35.392Z,95379.31
2022-12-09T18:49:11.738Z,95396.22
2022-12-09T18:51:39.022Z,95389.50
2022-12-09T18:54:07.543Z,95386.97
2022-12-09T18:56:36.376Z,95353.88
2022-12-09T18:59:07.587Z,95388.63
2022-12-09T19:01:40.309Z,95402.09
2022-12-09T19:04:16.480Z,95404.56
2022-12-09T19:06:45.783Z,95394.53
2022-12-09T19:09:17.390Z,95402.94
2022-12-09T19:11:46.692Z,95402.97
2022-12-09T19:14:14.204Z,95398.78
2022-12-09T19:16:41.821Z,95398.75
2022-12-09T19:19:10.919Z,95403.88
2022-12-09T19:21:38.837Z,95411.41
2022-12-09T19:24:05.851Z,95419.06
2022-12-09T19:26:34.401Z,95421.59
2022-12-09T19:29:03.409Z,95412.25
2022-12-09T19:31:31.093Z,95420.72
2022-12-09T19:34:06.505Z,95408.81
2022-12-09T19:36:36.061Z,95417.34
2022-12-09T19:39:06.030Z,95428.31
2022-12-09T19:41:32.550Z,95423.25
2022-12-09T19:44:00.390Z,95423.31
2022-12-09T19:46:29.040Z,95419.94
2022-12-09T19:48:58.039Z,95436.75
2022-12-09T19:51:26.306Z,95439.25
2022-12-09T19:53:56.122Z,95431.75
2022-12-09T19:56:23.566Z,95427.50
2022-12-09T19:58:50.690Z,95427.44
2022-12-09T20:01:18.679Z,95435.78
2022-12-09T20:03:47.612Z,95434.13
2022-12-09T20:06:16.250Z,95436.56
2022-12-09T20:08:43.460Z,95438.28
2022-12-09T20:11:13.791Z,95434.84
2022-12-09T20:13:40.454Z,95440.78
2022-12-09T20:16:09.702Z,95444.97
2022-12-09T20:18:38.214Z,95446.69
2022-12-09T20:21:08.266Z,95456.84
2022-12-09T20:23:37.514Z,95424.75
2022-12-09T20:26:28.454Z,95432.44
2022-12-09T20:28:56.653Z,95440.03
2022-12-09T20:31:24.873Z,95439.00
2022-12-09T20:34:17.964Z,95433.09
2022-12-09T20:36:46.001Z,95449.06
2022-12-09T20:39:16.114Z,95441.47
2022-12-09T20:41:43.618Z,95452.38
2022-12-09T20:44:11.415Z,95452.38
2022-12-09T20:46:39.762Z,95442.28
2022-12-09T20:49:06.425Z,95445.69
2022-12-09T20:51:38.384Z,95455.72
2022-12-09T20:54:06.502Z,95450.78
2022-12-09T20:56:33.781Z,95448.28
2022-12-09T20:59:01.343Z,95453.28
2022-12-09T21:01:30.334Z,95454.97
2022-12-09T21:03:58.532Z,95452.41
2022-12-09T21:06:29.254Z,95447.28
2022-12-09T21:08:59.093Z,95452.44
2022-12-09T21:11:26.401Z,95454.13
2022-12-09T21:14:00.743Z,95457.44
2022-12-09T21:16:29.691Z,95469.31
2022-12-09T21:18:58.614Z,95457.50
2022-12-09T21:21:28.350Z,95464.28
2022-12-09T21:23:54.725Z,95470.09
2022-12-09T21:26:22.848Z,95465.00
2022-12-09T21:28:51.694Z,95463.41
2022-12-09T21:31:24.861Z,95465.06
2022-12-09T21:33:53.268Z,95466.66
2022-12-09T21:36:32.717Z,95473.44
2022-12-09T21:38:59.627Z,95471.78
2022-12-09T21:41:28.654Z,95471.81
2022-12-09T21:43:55.557Z,95472.75
2022-12-09T21:46:25.022Z,95472.66
2022-12-09T21:48:53.634Z,95480.28
2022-12-09T21:51:22.403Z,95478.53
2022-12-09T21:53:49.679Z,95487.75
2022-12-09T21:56:24.174Z,95486.06
2022-12-09T21:58:53.420Z,95492.84
2022-12-09T22:01:22.718Z,95491.13
2022-12-09T22:03:49.648Z,95498.69
2022-12-09T22:06:16.898Z,95491.84
2022-12-09T22:08:43.796Z,95502.06
2022-12-09T22:11:18.253Z,95499.59
2022-12-09T22:13:44.758Z,95501.22
2022-12-09T22:16:14.846Z,95495.31
2022-12-09T22:18:42.244Z,95488.53
2022-12-09T22:21:27.730Z,95493.47
2022-12-09T22:23:57.579Z,95512.09
2022-12-09T22:26:24.482Z,95514.66
2022-12-09T22:28:51.049Z,95519.69
2022-12-09T22:31:25.778Z,95518.84
2022-12-09T22:33:54.414Z,95518.03
2022-12-09T22:36:21.446Z,95518.03
2022-12-09T22:38:48.237Z,95517.22
2022-12-09T22:41:20.373Z,95512.28
2022-12-09T22:43:48.793Z,95513.97
2022-12-09T22:46:18.655Z,95521.47
2022-12-09T22:48:45.121Z,95510.53
2022-12-09T22:51:14.441Z,95513.94
2022-12-09T22:53:41.212Z,95510.53
2022-12-09T22:56:09.525Z,95507.94
2022-12-09T22:58:36.102Z,95505.31
2022-12-09T23:01:07.958Z,95501.81
2022-12-09T23:03:34.361Z,95513.59
2022-12-09T23:06:01.543Z,95503.50
2022-12-09T23:08:27.961Z,95502.56
2022-12-09T23:10:54.330Z,95494.16
2022-12-09T23:13:20.698Z,95496.75
2022-12-09T23:15:47.166Z,95500.09
2022-12-09T23:18:13.606Z,95494.22
2022-12-09T23:20:39.942Z,95496.69
2022-12-09T23:23:06.322Z,95491.69
2022-12-09T23:25:33.499Z,95489.31
2022-12-09T23:27:59.882Z,95496.09
2022-12-09T23:30:26.278Z,95495.97
2022-12-09T23:32:52.615Z,95495.06
2022-12-09T23:35:18.980Z,95500.06
2022-12-09T23:37:45.395Z,95503.28
2022-12-09T23:40:11.874Z,95502.34
2022-12-09T23:42:38.217Z,95481.41
2022-12-09T23:45:05.468Z,95490.88
2022-12-09T23:47:31.805Z,95486.72
2022-12-09T23:49:58.194Z,95480.81
2022-12-09T23:52:24.535Z,95495.09
2022-12-09T23:54:51.122Z,95495.00
2022-12-09T23:57:18.053Z,95484.94
2022-12-09T23:59:44.616Z,95498.50
